sensor_id;sensor_type;location;lat;lon;timestamp;P1;durP1;ratioP1;P2;durP2;ratioP2
6376;SDS011;3221;48.858;10.128;2022-12-10T00:01:13;27.67;;;17.47;;
6376;SDS011;3221;48.858;10.128;2022-12-10T00:03:45;26.47;;;17.20;;
6376;SDS011;3221;48.858;10.128;2022-12-10T00:06:16;28.17;;;17.37;;
6376;SDS011;3221;48.858;10.128;2022-12-10T00:08:48;25.80;;;17.30;;
6376;SDS011;3221;48.858;10.128;2022-12-10T00:11:16;26.23;;;17.67;;
6376;SDS011;3221;48.858;10.128;2022-12-10T00:13:44;28.93;;;17.93;;
6376;SDS011;3221;48.858;10.128;2022-12-10T00:16:13;27.30;;;17.60;;
6376;SDS011;3221;48.858;10.128;2022-12-10T00:18:42;25.67;;;17.37;;
6376;SDS011;3221;48.858;10.128;2022-12-10T00:21:10;28.07;;;18.80;;
6376;SDS011;3221;48.858;10.128;2022-12-10T00:23:39;26.17;;;17.40;;
6376;SDS011;3221;48.858;10.128;2022-12-10T00:26:07;29.90;;;18.73;;
6376;SDS011;3221;48.858;10.128;2022-12-10T00:28:39;27.77;;;18.07;;
6376;SDS011;3221;48.858;10.128;2022-12-10T00:31:13;27.23;;;17.97;;
6376;SDS011;3221;48.858;10.128;2022-12-10T00:33:48;26.23;;;18.00;;
6376;SDS011;3221;48.858;10.128;2022-12-10T00:36:16;27.13;;;17.67;;
6376;SDS011;3221;48.858;10.128;2022-12-10T00:38:48;29.20;;;19.07;;
6376;SDS011;3221;48.858;10.128;2022-12-10T00:41:16;26.97;;;17.37;;
6376;SDS011;3221;48.858;10.128;2022-12-10T00:43:43;27.30;;;17.60;;
6376;SDS011;3221;48.858;10.128;2022-12-10T00:46:11;25.83;;;17.63;;
6376;SDS011;3221;48.858;10.128;2022-12-10T00:48:39;26.50;;;17.07;;
6376;SDS011;3221;48.858;10.128;2022-12-10T00:51:11;25.77;;;17.60;;
6376;SDS011;3221;48.858;10.128;2022-12-10T00:53:41;25.93;;;17.10;;
6376;SDS011;3221;48.858;10.128;2022-12-10T00:56:09;26.40;;;17.87;;
6376;SDS011;3221;48.858;10.128;2022-12-10T00:58:38;24.00;;;16.43;;
6376;SDS011;3221;48.858;10.128;2022-12-10T01:01:09;27.20;;;18.13;;
6376;SDS011;3221;48.858;10.128;2022-12-10T01:03:45;28.13;;;18.00;;
6376;SDS011;3221;48.858;10.128;2022-12-10T01:06:14;29.20;;;18.83;;
6376;SDS011;3221;48.858;10.128;2022-12-10T01:08:44;29.60;;;19.40;;
6376;SDS011;3221;48.858;10.128;2022-12-10T01:11:12;30.33;;;18.50;;
6376;SDS011;3221;48.858;10.128;2022-12-10T01:13:42;24.87;;;17.07;;
6376;SDS011;3221;48.858;10.128;2022-12-10T01:16:11;24.53;;;16.47;;
6376;SDS011;3221;48.858;10.128;2022-12-10T01:18:39;24.67;;;16.33;;
6376;SDS011;3221;48.858;10.128;2022-12-10T01:21:11;25.17;;;16.70;;
6376;SDS011;3221;48.858;10.128;2022-12-10T01:23:40;25.50;;;16.37;;
6376;SDS011;3221;48.858;10.128;2022-12-10T01:26:13;25.27;;;16.57;;
6376;SDS011;3221;48.858;10.128;2022-12-10T01:28:42;24.27;;;16.30;;
6376;SDS011;3221;48.858;10.128;2022-12-10T01:31:13;24.37;;;17.10;;
6376;SDS011;3221;48.858;10.128;2022-12-10T01:33:42;26.23;;;16.60;;
6376;SDS011;3221;48.858;10.128;2022-12-10T01:36:11;23.63;;;16.23;;
6376;SDS011;3221;48.858;10.128;2022-12-10T01:38:41;27.80;;;18.40;;
6376;SDS011;3221;48.858;10.128;2022-12-10T01:41:13;29.73;;;19.03;;
6376;SDS011;3221;48.858;10.128;2022-12-10T01:57:04;28.53;;;17.80;;
6376;SDS011;3221;48.858;10.128;2022-12-10T01:59:37;26.00;;;16.90;;
6376;SDS011;3221;48.858;10.128;2022-12-10T02:13:11;24.57;;;16.67;;
6376;SDS011;3221;48.858;10.128;2022-12-10T02:19:03;22.87;;;15.53;;
6376;SDS011;3221;48.858;10.128;2022-12-10T02:21:40;25.33;;;17.60;;
6376;SDS011;3221;48.858;10.128;2022-12-10T02:24:12;25.87;;;17.07;;
6376;SDS011;3221;48.858;10.128;2022-12-10T02:29:20;25.23;;;16.80;;
6376;SDS011;3221;48.858;10.128;2022-12-10T02:31:53;25.17;;;16.97;;
6376;SDS011;3221;48.858;10.128;2022-12-10T02:34:42;24.77;;;16.90;;
6376;SDS011;3221;48.858;10.128;2022-12-10T02:37:14;27.13;;;18.03;;
6376;SDS011;3221;48.858;10.128;2022-12-10T02:39:53;28.27;;;18.63;;
6376;SDS011;3221;48.858;10.128;2022-12-10T02:42:24;24.67;;;16.57;;
6376;SDS011;3221;48.858;10.128;2022-12-10T02:44:54;27.57;;;18.03;;
6376;SDS011;3221;48.858;10.128;2022-12-10T02:47:24;27.80;;;18.27;;
6376;SDS011;3221;48.858;10.128;2022-12-10T02:49:53;26.33;;;16.80;;
6376;SDS011;3221;48.858;10.128;2022-12-10T02:52:24;26.63;;;17.93;;
6376;SDS011;3221;48.858;10.128;2022-12-10T02:54:52;26.03;;;17.30;;
6376;SDS011;3221;48.858;10.128;2022-12-10T02:57:27;27.13;;;17.47;;
6376;SDS011;3221;48.858;10.128;2022-12-10T03:00:09;26.50;;;17.33;;
6376;SDS011;3221;48.858;10.128;2022-12-10T03:03:10;27.90;;;17.97;;
6376;SDS011;3221;48.858;10.128;2022-12-10T03:05:55;26.63;;;17.90;;
6376;SDS011;3221;48.858;10.128;2022-12-10T03:08:59;29.83;;;18.97;;
6376;SDS011;3221;48.858;10.128;2022-12-10T03:11:32;26.30;;;17.90;;
6376;SDS011;3221;48.858;10.128;2022-12-10T03:14:11;29.47;;;19.37;;
6376;SDS011;3221;48.858;10.128;2022-12-10T03:16:42;28.67;;;19.27;;
6376;SDS011;3221;48.858;10.128;2022-12-10T03:19:23;25.93;;;17.80;;
6376;SDS011;3221;48.858;10.128;2022-12-10T03:21:53;28.10;;;17.57;;
6376;SDS011;3221;48.858;10.128;2022-12-10T03:24:23;28.77;;;19.13;;
6376;SDS011;3221;48.858;10.128;2022-12-10T03:26:52;25.13;;;16.77;;
6376;SDS011;3221;48.858;10.128;2022-12-10T03:29:24;26.93;;;17.20;;
6376;SDS011;3221;48.858;10.128;2022-12-10T03:31:55;26.27;;;17.80;;
6376;SDS011;3221;48.858;10.128;2022-12-10T03:34:23;27.47;;;18.40;;
6376;SDS011;3221;48.858;10.128;2022-12-10T03:36:50;31.17;;;18.70;;
6376;SDS011;3221;48.858;10.128;2022-12-10T03:39:17;28.17;;;18.17;;
6376;SDS011;3221;48.858;10.128;2022-12-10T03:41:44;27.27;;;17.60;;
6376;SDS011;3221;48.858;10.128;2022-12-10T03:44:11;27.33;;;17.50;;
6376;SDS011;3221;48.858;10.128;2022-12-10T03:46:38;25.57;;;17.40;;
6376;SDS011;3221;48.858;10.128;2022-12-10T03:49:05;25.33;;;17.83;;
6376;SDS011;3221;48.858;10.128;2022-12-10T03:51:32;28.60;;;18.33;;
6376;SDS011;3221;48.858;10.128;2022-12-10T03:53:59;26.93;;;17.60;;
6376;SDS011;3221;48.858;10.128;2022-12-10T03:56:26;26.67;;;17.70;;
6376;SDS011;3221;48.858;10.128;2022-12-10T03:58:52;28.60;;;19.00;;
6376;SDS011;3221;48.858;10.128;2022-12-10T04:01:19;31.00;;;19.83;;
6376;SDS011;3221;48.858;10.128;2022-12-10T04:03:46;31.07;;;19.87;;
6376;SDS011;3221;48.858;10.128;2022-12-10T04:06:15;29.83;;;19.60;;
6376;SDS011;3221;48.858;10.128;2022-12-10T04:08:44;25.60;;;17.97;;
6376;SDS011;3221;48.858;10.128;2022-12-10T04:11:12;26.93;;;17.90;;
6376;SDS011;3221;48.858;10.128;2022-12-10T04:13:40;25.97;;;16.77;;
6376;SDS011;3221;48.858;10.128;2022-12-10T04:16:27;25.63;;;17.00;;
6376;SDS011;3221;48.858;10.128;2022-12-10T04:18:55;26.93;;;18.10;;
6376;SDS011;3221;48.858;10.128;2022-12-10T04:21:28;26.67;;;16.83;;
6376;SDS011;3221;48.858;10.128;2022-12-10T04:24:15;28.40;;;17.87;;
6376;SDS011;3221;48.858;10.128;2022-12-10T04:27:44;26.97;;;17.50;;
6376;SDS011;3221;48.858;10.128;2022-12-10T04:29:53;26.07;;;17.00;;
6376;SDS011;3221;48.858;10.128;2022-12-10T04:32:21;24.10;;;15.70;;
6376;SDS011;3221;48.858;10.128;2022-12-10T04:34:48;22.60;;;15.03;;
6376;SDS011;3221;48.858;10.128;2022-12-10T04:37:16;22.47;;;14.83;;
6376;SDS011;3221;48.858;10.128;2022-12-10T04:39:43;21.87;;;14.80;;
6376;SDS011;3221;48.858;10.128;2022-12-10T04:42:10;20.87;;;13.57;;
6376;SDS011;3221;48.858;10.128;2022-12-10T04:44:37;20.17;;;12.93;;
6376;SDS011;3221;48.858;10.128;2022-12-10T04:47:05;18.43;;;12.57;;
6376;SDS011;3221;48.858;10.128;2022-12-10T04:49:32;18.33;;;12.20;;
6376;SDS011;3221;48.858;10.128;2022-12-10T04:51:59;18.53;;;11.93;;
6376;SDS011;3221;48.858;10.128;2022-12-10T04:54:28;19.40;;;12.20;;
6376;SDS011;3221;48.858;10.128;2022-12-10T04:57:02;19.30;;;12.33;;
6376;SDS011;3221;48.858;10.128;2022-12-10T04:59:29;20.67;;;12.80;;
6376;SDS011;3221;48.858;10.128;2022-12-10T05:01:56;18.77;;;12.23;;
6376;SDS011;3221;48.858;10.128;2022-12-10T05:04:23;16.53;;;11.70;;
6376;SDS011;3221;48.858;10.128;2022-12-10T05:06:49;18.20;;;11.70;;
6376;SDS011;3221;48.858;10.128;2022-12-10T05:09:16;17.03;;;11.30;;
6376;SDS011;3221;48.858;10.128;2022-12-10T05:11:43;16.13;;;10.67;;
6376;SDS011;3221;48.858;10.128;2022-12-10T05:14:11;18.53;;;11.37;;
6376;SDS011;3221;48.858;10.128;2022-12-10T05:16:39;17.17;;;11.77;;
6376;SDS011;3221;48.858;10.128;2022-12-10T05:19:06;16.87;;;11.03;;
6376;SDS011;3221;48.858;10.128;2022-12-10T05:21:34;17.17;;;11.40;;
6376;SDS011;3221;48.858;10.128;2022-12-10T05:24:21;16.33;;;11.00;;
6376;SDS011;3221;48.858;10.128;2022-12-10T05:26:48;16.73;;;10.50;;
6376;SDS011;3221;48.858;10.128;2022-12-10T05:29:17;16.13;;;10.57;;
6376;SDS011;3221;48.858;10.128;2022-12-10T05:31:45;16.73;;;10.53;;
6376;SDS011;3221;48.858;10.128;2022-12-10T05:34:12;16.17;;;10.20;;
6376;SDS011;3221;48.858;10.128;2022-12-10T05:36:39;17.73;;;10.57;;
6376;SDS011;3221;48.858;10.128;2022-12-10T05:39:06;14.30;;;9.77;;
6376;SDS011;3221;48.858;10.128;2022-12-10T05:41:35;15.23;;;10.60;;
6376;SDS011;3221;48.858;10.128;2022-12-10T05:44:03;13.90;;;9.47;;
6376;SDS011;3221;48.858;10.128;2022-12-10T05:46:33;14.17;;;9.90;;
6376;SDS011;3221;48.858;10.128;2022-12-10T05:49:02;11.50;;;8.70;;
6376;SDS011;3221;48.858;10.128;2022-12-10T05:51:31;13.33;;;8.67;;
6376;SDS011;3221;48.858;10.128;2022-12-10T05:54:01;12.90;;;8.77;;
6376;SDS011;3221;48.858;10.128;2022-12-10T05:56:29;11.93;;;8.30;;
6376;SDS011;3221;48.858;10.128;2022-12-10T05:58:58;11.70;;;8.37;;
6376;SDS011;3221;48.858;10.128;2022-12-10T06:01:27;12.37;;;8.40;;
6376;SDS011;3221;48.858;10.128;2022-12-10T06:03:56;9.73;;;7.33;;
6376;SDS011;3221;48.858;10.128;2022-12-10T06:06:26;11.23;;;7.90;;
6376;SDS011;3221;48.858;10.128;2022-12-10T06:08:55;12.67;;;8.07;;
6376;SDS011;3221;48.858;10.128;2022-12-10T06:11:22;10.87;;;7.57;;
6376;SDS011;3221;48.858;10.128;2022-12-10T06:13:50;12.80;;;8.57;;
6376;SDS011;3221;48.858;10.128;2022-12-10T06:16:21;14.17;;;9.20;;
6376;SDS011;3221;48.858;10.128;2022-12-10T06:18:49;12.53;;;8.43;;
6376;SDS011;3221;48.858;10.128;2022-12-10T06:21:16;14.33;;;10.07;;
6376;SDS011;3221;48.858;10.128;2022-12-10T06:23:44;15.90;;;11.03;;
6376;SDS011;3221;48.858;10.128;2022-12-10T06:26:12;16.63;;;11.27;;
6376;SDS011;3221;48.858;10.128;2022-12-10T06:28:41;31.67;;;18.77;;
6376;SDS011;3221;48.858;10.128;2022-12-10T06:31:09;27.07;;;16.47;;
6376;SDS011;3221;48.858;10.128;2022-12-10T06:33:39;24.37;;;15.50;;
6376;SDS011;3221;48.858;10.128;2022-12-10T06:36:07;17.33;;;11.03;;
6376;SDS011;3221;48.858;10.128;2022-12-10T06:38:35;17.40;;;11.50;;
6376;SDS011;3221;48.858;10.128;2022-12-10T06:41:06;17.23;;;11.17;;
6376;SDS011;3221;48.858;10.128;2022-12-10T06:43:35;18.07;;;11.40;;
6376;SDS011;3221;48.858;10.128;2022-12-10T06:46:05;15.40;;;10.50;;
6376;SDS011;3221;48.858;10.128;2022-12-10T06:48:33;18.67;;;12.50;;
6376;SDS011;3221;48.858;10.128;2022-12-10T06:51:01;23.27;;;14.57;;
6376;SDS011;3221;48.858;10.128;2022-12-10T06:53:30;22.80;;;14.33;;
6376;SDS011;3221;48.858;10.128;2022-12-10T06:56:01;25.43;;;15.10;;
6376;SDS011;3221;48.858;10.128;2022-12-10T06:58:31;26.23;;;16.40;;
6376;SDS011;3221;48.858;10.128;2022-12-10T07:01:07;28.37;;;17.23;;
6376;SDS011;3221;48.858;10.128;2022-12-10T07:03:35;25.30;;;16.57;;
6376;SDS011;3221;48.858;10.128;2022-12-10T07:06:03;24.43;;;15.80;;
6376;SDS011;3221;48.858;10.128;2022-12-10T07:08:31;20.67;;;13.03;;
6376;SDS011;3221;48.858;10.128;2022-12-10T07:10:58;20.70;;;13.37;;
6376;SDS011;3221;48.858;10.128;2022-12-10T07:13:24;19.80;;;12.93;;
6376;SDS011;3221;48.858;10.128;2022-12-10T07:15:56;18.00;;;12.53;;
6376;SDS011;3221;48.858;10.128;2022-12-10T07:18:23;18.07;;;12.27;;
6376;SDS011;3221;48.858;10.128;2022-12-10T07:20:50;19.07;;;12.80;;
6376;SDS011;3221;48.858;10.128;2022-12-10T07:23:17;15.93;;;10.80;;
6376;SDS011;3221;48.858;10.128;2022-12-10T07:25:44;16.87;;;11.07;;
6376;SDS011;3221;48.858;10.128;2022-12-10T07:28:12;24.63;;;14.93;;
6376;SDS011;3221;48.858;10.128;2022-12-10T07:30:39;23.93;;;15.00;;
6376;SDS011;3221;48.858;10.128;2022-12-10T07:33:06;21.37;;;13.90;;
6376;SDS011;3221;48.858;10.128;2022-12-10T07:35:32;21.00;;;13.73;;
6376;SDS011;3221;48.858;10.128;2022-12-10T07:37:59;20.50;;;14.37;;
6376;SDS011;3221;48.858;10.128;2022-12-10T07:40:26;22.10;;;15.40;;
6376;SDS011;3221;48.858;10.128;2022-12-10T07:42:53;26.23;;;17.50;;
6376;SDS011;3221;48.858;10.128;2022-12-10T07:45:20;28.30;;;18.97;;
6376;SDS011;3221;48.858;10.128;2022-12-10T07:47:46;28.60;;;18.33;;
6376;SDS011;3221;48.858;10.128;2022-12-10T07:50:13;27.40;;;18.63;;
6376;SDS011;3221;48.858;10.128;2022-12-10T07:52:40;28.57;;;18.50;;
6376;SDS011;3221;48.858;10.128;2022-12-10T07:55:07;29.40;;;18.67;;
6376;SDS011;3221;48.858;10.128;2022-12-10T07:57:34;29.10;;;19.53;;
6376;SDS011;3221;48.858;10.128;2022-12-10T08:00:01;31.83;;;19.63;;
6376;SDS011;3221;48.858;10.128;2022-12-10T08:02:37;30.23;;;19.73;;
6376;SDS011;3221;48.858;10.128;2022-12-10T08:05:04;30.10;;;19.20;;
6376;SDS011;3221;48.858;10.128;2022-12-10T08:07:31;28.87;;;18.27;;
6376;SDS011;3221;48.858;10.128;2022-12-10T08:09:58;29.00;;;19.03;;
6376;SDS011;3221;48.858;10.128;2022-12-10T08:12:25;28.83;;;19.20;;
6376;SDS011;3221;48.858;10.128;2022-12-10T08:14:52;28.27;;;18.67;;
6376;SDS011;3221;48.858;10.128;2022-12-10T08:17:19;30.77;;;20.20;;
6376;SDS011;3221;48.858;10.128;2022-12-10T08:19:46;30.20;;;20.10;;
6376;SDS011;3221;48.858;10.128;2022-12-10T08:22:14;30.43;;;20.23;;
6376;SDS011;3221;48.858;10.128;2022-12-10T08:24:41;32.03;;;20.00;;
6376;SDS011;3221;48.858;10.128;2022-12-10T08:27:07;29.43;;;19.60;;
6376;SDS011;3221;48.858;10.128;2022-12-10T08:29:34;30.07;;;19.43;;
6376;SDS011;3221;48.858;10.128;2022-12-10T08:32:01;32.20;;;20.17;;
6376;SDS011;3221;48.858;10.128;2022-12-10T08:34:28;31.50;;;21.27;;
6376;SDS011;3221;48.858;10.128;2022-12-10T08:36:55;31.30;;;20.30;;
6376;SDS011;3221;48.858;10.128;2022-12-10T08:39:22;31.03;;;21.03;;
6376;SDS011;3221;48.858;10.128;2022-12-10T08:41:48;32.07;;;20.80;;
6376;SDS011;3221;48.858;10.128;2022-12-10T08:44:15;35.50;;;22.57;;
6376;SDS011;3221;48.858;10.128;2022-12-10T08:46:42;31.73;;;21.60;;
6376;SDS011;3221;48.858;10.128;2022-12-10T08:49:09;35.63;;;22.07;;
6376;SDS011;3221;48.858;10.128;2022-12-10T08:51:36;35.93;;;23.37;;
6376;SDS011;3221;48.858;10.128;2022-12-10T08:54:03;34.37;;;22.07;;
6376;SDS011;3221;48.858;10.128;2022-12-10T08:56:30;32.43;;;20.73;;
6376;SDS011;3221;48.858;10.128;2022-12-10T08:58:57;32.53;;;21.20;;
6376;SDS011;3221;48.858;10.128;2022-12-10T09:01:24;34.97;;;21.43;;
6376;SDS011;3221;48.858;10.128;2022-12-10T09:03:51;31.27;;;20.67;;
6376;SDS011;3221;48.858;10.128;2022-12-10T09:06:19;31.17;;;20.43;;
6376;SDS011;3221;48.858;10.128;2022-12-10T09:08:48;31.80;;;20.30;;
6376;SDS011;3221;48.858;10.128;2022-12-10T09:11:22;29.70;;;19.30;;
6376;SDS011;3221;48.858;10.128;2022-12-10T09:13:51;29.60;;;20.37;;
6376;SDS011;3221;48.858;10.128;2022-12-10T09:16:20;29.67;;;19.73;;
6376;SDS011;3221;48.858;10.128;2022-12-10T09:18:48;30.87;;;20.23;;
6376;SDS011;3221;48.858;10.128;2022-12-10T09:21:15;29.37;;;20.20;;
6376;SDS011;3221;48.858;10.128;2022-12-10T09:23:43;30.43;;;20.27;;
6376;SDS011;3221;48.858;10.128;2022-12-10T09:26:11;32.13;;;20.47;;
6376;SDS011;3221;48.858;10.128;2022-12-10T09:28:40;29.73;;;20.47;;
6376;SDS011;3221;48.858;10.128;2022-12-10T09:31:08;32.13;;;21.13;;
6376;SDS011;3221;48.858;10.128;2022-12-10T09:33:45;33.57;;;21.57;;
6376;SDS011;3221;48.858;10.128;2022-12-10T09:36:18;31.77;;;20.80;;
6376;SDS011;3221;48.858;10.128;2022-12-10T09:38:46;32.53;;;20.77;;
6376;SDS011;3221;48.858;10.128;2022-12-10T09:47:05;30.87;;;20.33;;
6376;SDS011;3221;48.858;10.128;2022-12-10T09:49:56;30.23;;;19.50;;
6376;SDS011;3221;48.858;10.128;2022-12-10T09:52:29;34.17;;;22.00;;
6376;SDS011;3221;48.858;10.128;2022-12-10T09:55:04;30.83;;;19.80;;
6376;SDS011;3221;48.858;10.128;2022-12-10T09:57:40;29.80;;;19.87;;
6376;SDS011;3221;48.858;10.128;2022-12-10T10:02:49;29.83;;;19.93;;
6376;SDS011;3221;48.858;10.128;2022-12-10T10:07:48;30.40;;;19.90;;
6376;SDS011;3221;48.858;10.128;2022-12-10T10:10:36;28.97;;;18.73;;
6376;SDS011;3221;48.858;10.128;2022-12-10T10:15:52;32.07;;;19.77;;
6376;SDS011;3221;48.858;10.128;2022-12-10T10:18:30;30.37;;;19.70;;
6376;SDS011;3221;48.858;10.128;2022-12-10T10:21:18;30.53;;;19.57;;
6376;SDS011;3221;48.858;10.128;2022-12-10T10:23:51;28.80;;;19.03;;
6376;SDS011;3221;48.858;10.128;2022-12-10T10:26:18;30.47;;;20.57;;
6376;SDS011;3221;48.858;10.128;2022-12-10T10:28:45;29.70;;;19.07;;
6376;SDS011;3221;48.858;10.128;2022-12-10T10:31:22;28.60;;;19.10;;
6376;SDS011;3221;48.858;10.128;2022-12-10T10:33:53;30.93;;;20.00;;
6376;SDS011;3221;48.858;10.128;2022-12-10T10:36:23;30.77;;;19.37;;
6376;SDS011;3221;48.858;10.128;2022-12-10T10:38:56;32.03;;;19.87;;
6376;SDS011;3221;48.858;10.128;2022-12-10T10:41:24;29.53;;;20.20;;
6376;SDS011;3221;48.858;10.128;2022-12-10T10:43:54;29.70;;;20.20;;
6376;SDS011;3221;48.858;10.128;2022-12-10T10:46:28;30.03;;;19.77;;
6376;SDS011;3221;48.858;10.128;2022-12-10T10:49:11;29.47;;;18.93;;
6376;SDS011;3221;48.858;10.128;2022-12-10T10:51:47;31.43;;;20.20;;
6376;SDS011;3221;48.858;10.128;2022-12-10T10:54:30;30.33;;;20.03;;
6376;SDS011;3221;48.858;10.128;2022-12-10T10:56:57;29.70;;;19.60;;
6376;SDS011;3221;48.858;10.128;2022-12-10T10:59:31;29.73;;;18.40;;
6376;SDS011;3221;48.858;10.128;2022-12-10T11:04:54;28.47;;;18.40;;
6376;SDS011;3221;48.858;10.128;2022-12-10T11:07:32;30.60;;;18.73;;
6376;SDS011;3221;48.858;10.128;2022-12-10T11:09:59;28.43;;;18.07;;
6376;SDS011;3221;48.858;10.128;2022-12-10T11:17:51;28.17;;;19.07;;
6376;SDS011;3221;48.858;10.128;2022-12-10T11:20:25;28.93;;;19.43;;
6376;SDS011;3221;48.858;10.128;2022-12-10T11:22:57;30.13;;;19.43;;
6376;SDS011;3221;48.858;10.128;2022-12-10T11:34:17;27.97;;;19.73;;
6376;SDS011;3221;48.858;10.128;2022-12-10T11:42:04;28.53;;;18.90;;
6376;SDS011;3221;48.858;10.128;2022-12-10T11:44:47;29.83;;;19.77;;
6376;SDS011;3221;48.858;10.128;2022-12-10T11:56:13;34.73;;;21.50;;
6376;SDS011;3221;48.858;10.128;2022-12-10T12:04:27;33.03;;;21.13;;
6376;SDS011;3221;48.858;10.128;2022-12-10T12:09:53;34.00;;;21.57;;
6376;SDS011;3221;48.858;10.128;2022-12-10T12:12:29;30.33;;;20.07;;
6376;SDS011;3221;48.858;10.128;2022-12-10T12:15:23;31.87;;;21.33;;
6376;SDS011;3221;48.858;10.128;2022-12-10T12:18:06;30.63;;;20.67;;
6376;SDS011;3221;48.858;10.128;2022-12-10T12:20:53;30.30;;;20.50;;
6376;SDS011;3221;48.858;10.128;2022-12-10T12:23:25;32.73;;;20.77;;
6376;SDS011;3221;48.858;10.128;2022-12-10T12:26:10;33.50;;;21.63;;
6376;SDS011;3221;48.858;10.128;2022-12-10T12:28:46;32.20;;;21.27;;
6376;SDS011;3221;48.858;10.128;2022-12-10T12:31:21;35.57;;;22.70;;
6376;SDS011;3221;48.858;10.128;2022-12-10T12:34:04;33.97;;;22.37;;
6376;SDS011;3221;48.858;10.128;2022-12-10T12:36:39;31.80;;;21.27;;
6376;SDS011;3221;48.858;10.128;2022-12-10T12:41:41;34.10;;;22.30;;
6376;SDS011;3221;48.858;10.128;2022-12-10T12:46:46;34.33;;;23.03;;
6376;SDS011;3221;48.858;10.128;2022-12-10T12:54:27;32.50;;;21.47;;
6376;SDS011;3221;48.858;10.128;2022-12-10T13:00:03;37.27;;;22.80;;
6376;SDS011;3221;48.858;10.128;2022-12-10T13:05:45;31.67;;;21.20;;
6376;SDS011;3221;48.858;10.128;2022-12-10T13:16:00;37.13;;;23.60;;
6376;SDS011;3221;48.858;10.128;2022-12-10T13:29:58;35.37;;;23.50;;
6376;SDS011;3221;48.858;10.128;2022-12-10T13:32:46;37.50;;;23.27;;
6376;SDS011;3221;48.858;10.128;2022-12-10T13:46:54;36.70;;;23.03;;
6376;SDS011;3221;48.858;10.128;2022-12-10T13:49:16;39.30;;;23.87;;
6376;SDS011;3221;48.858;10.128;2022-12-10T14:02:50;37.67;;;23.23;;
6376;SDS011;3221;48.858;10.128;2022-12-10T14:08:08;42.30;;;26.83;;
6376;SDS011;3221;48.858;10.128;2022-12-10T14:10:42;50.03;;;28.23;;
6376;SDS011;3221;48.858;10.128;2022-12-10T14:13:10;41.57;;;25.80;;
6376;SDS011;3221;48.858;10.128;2022-12-10T14:15:39;50.97;;;30.43;;
6376;SDS011;3221;48.858;10.128;2022-12-10T14:18:11;50.40;;;30.27;;
6376;SDS011;3221;48.858;10.128;2022-12-10T14:20:44;47.23;;;28.87;;
6376;SDS011;3221;48.858;10.128;2022-12-10T14:23:20;52.50;;;32.10;;
6376;SDS011;3221;48.858;10.128;2022-12-10T14:26:14;55.37;;;30.57;;
6376;SDS011;3221;48.858;10.128;2022-12-10T14:28:44;56.40;;;32.00;;
6376;SDS011;3221;48.858;10.128;2022-12-10T14:31:20;51.00;;;30.00;;
6376;SDS011;3221;48.858;10.128;2022-12-10T14:33:51;50.17;;;28.43;;
6376;SDS011;3221;48.858;10.128;2022-12-10T14:36:28;42.90;;;26.87;;
6376;SDS011;3221;48.858;10.128;2022-12-10T14:38:58;44.03;;;27.57;;
6376;SDS011;3221;48.858;10.128;2022-12-10T14:41:26;41.33;;;25.17;;
6376;SDS011;3221;48.858;10.128;2022-12-10T14:43:55;44.73;;;26.17;;
6376;SDS011;3221;48.858;10.128;2022-12-10T14:46:28;40.10;;;25.17;;
6376;SDS011;3221;48.858;10.128;2022-12-10T14:48:57;39.07;;;23.60;;
6376;SDS011;3221;48.858;10.128;2022-12-10T14:51:25;38.73;;;24.30;;
6376;SDS011;3221;48.858;10.128;2022-12-10T14:53:57;39.47;;;25.03;;
6376;SDS011;3221;48.858;10.128;2022-12-10T14:56:29;40.40;;;24.73;;
6376;SDS011;3221;48.858;10.128;2022-12-10T15:01:38;36.20;;;22.23;;
6376;SDS011;3221;48.858;10.128;2022-12-10T15:04:13;37.27;;;22.80;;
6376;SDS011;3221;48.858;10.128;2022-12-10T15:06:51;34.23;;;22.10;;
6376;SDS011;3221;48.858;10.128;2022-12-10T15:09:23;35.60;;;22.63;;
6376;SDS011;3221;48.858;10.128;2022-12-10T15:11:53;36.07;;;22.27;;
6376;SDS011;3221;48.858;10.128;2022-12-10T15:14:21;33.40;;;21.63;;
6376;SDS011;3221;48.858;10.128;2022-12-10T15:16:49;36.53;;;22.43;;
6376;SDS011;3221;48.858;10.128;2022-12-10T15:21:59;37.03;;;22.57;;
6376;SDS011;3221;48.858;10.128;2022-12-10T15:24:46;33.43;;;22.03;;
6376;SDS011;3221;48.858;10.128;2022-12-10T15:27:18;37.03;;;22.97;;
6376;SDS011;3221;48.858;10.128;2022-12-10T15:29:47;36.97;;;22.90;;
6376;SDS011;3221;48.858;10.128;2022-12-10T15:32:25;35.67;;;21.97;;
6376;SDS011;3221;48.858;10.128;2022-12-10T15:34:54;36.30;;;22.50;;
6376;SDS011;3221;48.858;10.128;2022-12-10T15:37:27;34.53;;;21.47;;
6376;SDS011;3221;48.858;10.128;2022-12-10T15:40:02;32.63;;;20.80;;
6376;SDS011;3221;48.858;10.128;2022-12-10T15:47:49;33.93;;;21.43;;
6376;SDS011;3221;48.858;10.128;2022-12-10T15:50:16;34.47;;;21.87;;
6376;SDS011;3221;48.858;10.128;2022-12-10T15:52:44;35.43;;;21.30;;
6376;SDS011;3221;48.858;10.128;2022-12-10T15:55:12;33.40;;;21.13;;
6376;SDS011;3221;48.858;10.128;2022-12-10T15:57:40;34.27;;;21.93;;
6376;SDS011;3221;48.858;10.128;2022-12-10T16:00:21;34.57;;;21.90;;
6376;SDS011;3221;48.858;10.128;2022-12-10T16:02:51;34.60;;;21.57;;
6376;SDS011;3221;48.858;10.128;2022-12-10T16:05:23;36.27;;;23.17;;
6376;SDS011;3221;48.858;10.128;2022-12-10T16:07:56;35.60;;;22.67;;
6376;SDS011;3221;48.858;10.128;2022-12-10T16:10:26;42.80;;;25.20;;
6376;SDS011;3221;48.858;10.128;2022-12-10T16:12:58;45.47;;;27.23;;
6376;SDS011;3221;48.858;10.128;2022-12-10T16:15:29;40.50;;;25.80;;
6376;SDS011;3221;48.858;10.128;2022-12-10T16:18:02;45.70;;;27.47;;
6376;SDS011;3221;48.858;10.128;2022-12-10T16:20:31;46.47;;;26.70;;
6376;SDS011;3221;48.858;10.128;2022-12-10T16:22:59;48.63;;;28.90;;
6376;SDS011;3221;48.858;10.128;2022-12-10T16:25:30;44.23;;;26.27;;
6376;SDS011;3221;48.858;10.128;2022-12-10T16:27:59;45.07;;;27.17;;
6376;SDS011;3221;48.858;10.128;2022-12-10T16:30:31;45.20;;;27.53;;
6376;SDS011;3221;48.858;10.128;2022-12-10T16:33:12;40.77;;;25.73;;
6376;SDS011;3221;48.858;10.128;2022-12-10T16:35:39;39.83;;;23.90;;
6376;SDS011;3221;48.858;10.128;2022-12-10T16:38:06;37.47;;;24.13;;
6376;SDS011;3221;48.858;10.128;2022-12-10T16:40:36;38.70;;;24.40;;
6376;SDS011;3221;48.858;10.128;2022-12-10T16:43:05;35.83;;;24.20;;
6376;SDS011;3221;48.858;10.128;2022-12-10T16:45:36;38.00;;;24.13;;
6376;SDS011;3221;48.858;10.128;2022-12-10T16:48:04;33.80;;;22.17;;
6376;SDS011;3221;48.858;10.128;2022-12-10T16:50:32;36.53;;;23.73;;
6376;SDS011;3221;48.858;10.128;2022-12-10T16:53:01;36.70;;;23.07;;
6376;SDS011;3221;48.858;10.128;2022-12-10T16:55:33;31.50;;;20.80;;
6376;SDS011;3221;48.858;10.128;2022-12-10T16:58:00;36.27;;;22.67;;
6376;SDS011;3221;48.858;10.128;2022-12-10T17:00:27;33.30;;;21.70;;
6376;SDS011;3221;48.858;10.128;2022-12-10T17:02:54;33.93;;;22.10;;
6376;SDS011;3221;48.858;10.128;2022-12-10T17:05:26;33.37;;;21.23;;
6376;SDS011;3221;48.858;10.128;2022-12-10T17:07:57;35.27;;;22.57;;
6376;SDS011;3221;48.858;10.128;2022-12-10T17:10:24;34.40;;;22.47;;
6376;SDS011;3221;48.858;10.128;2022-12-10T17:13:10;35.57;;;22.30;;
6376;SDS011;3221;48.858;10.128;2022-12-10T17:15:39;32.17;;;21.13;;
6376;SDS011;3221;48.858;10.128;2022-12-10T17:18:15;33.20;;;20.90;;
6376;SDS011;3221;48.858;10.128;2022-12-10T17:20:44;32.93;;;20.47;;
6376;SDS011;3221;48.858;10.128;2022-12-10T17:23:11;32.53;;;20.63;;
6376;SDS011;3221;48.858;10.128;2022-12-10T17:25:39;32.13;;;20.60;;
6376;SDS011;3221;48.858;10.128;2022-12-10T17:28:11;32.60;;;20.73;;
6376;SDS011;3221;48.858;10.128;2022-12-10T17:30:43;31.53;;;20.57;;
6376;SDS011;3221;48.858;10.128;2022-12-10T17:33:14;32.87;;;21.63;;